sensor_id;sensor_type;location;lat;lon;timestamp;P1;durP1;ratioP1;P2;durP2;ratioP2
81619;SDS011;71028;53.410;6.710;2024-02-16T00:01:10;9.02;;;3.88;;
81619;SDS011;71028;53.410;6.710;2024-02-16T00:03:36;4.75;;;3.72;;
81619;SDS011;71028;53.410;6.710;2024-02-16T00:06:02;5.85;;;3.40;;
81619;SDS011;71028;53.410;6.710;2024-02-16T00:08:28;5.90;;;3.20;;
81619;SDS011;71028;53.410;6.710;2024-02-16T00:10:55;6.72;;;3.72;;
81619;SDS011;71028;53.410;6.710;2024-02-16T00:13:21;6.95;;;3.30;;
81619;SDS011;71028;53.410;6.710;2024-02-16T00:15:47;8.30;;;3.72;;
81619;SDS011;71028;53.410;6.710;2024-02-16T00:18:13;5.28;;;3.63;;
81619;SDS011;71028;53.410;6.710;2024-02-16T00:20:39;5.93;;;3.67;;
81619;SDS011;71028;53.410;6.710;2024-02-16T00:23:05;5.05;;;3.15;;
81619;SDS011;71028;53.410;6.710;2024-02-16T00:25:31;5.38;;;3.35;;
81619;SDS011;71028;53.410;6.710;2024-02-16T00:27:58;7.85;;;3.63;;
81619;SDS011;71028;53.410;6.710;2024-02-16T00:30:24;7.38;;;3.30;;
81619;SDS011;71028;53.410;6.710;2024-02-16T00:32:52;8.18;;;3.83;;
81619;SDS011;71028;53.410;6.710;2024-02-16T00:35:18;6.60;;;3.30;;
81619;SDS011;71028;53.410;6.710;2024-02-16T00:37:44;6.47;;;4.03;;
81619;SDS011;71028;53.410;6.710;2024-02-16T00:40:11;4.88;;;3.08;;
81619;SDS011;71028;53.410;6.710;2024-02-16T00:42:37;6.90;;;3.20;;
81619;SDS011;71028;53.410;6.710;2024-02-16T00:45:03;7.43;;;3.22;;
81619;SDS011;71028;53.410;6.710;2024-02-16T00:47:29;5.68;;;4.28;;
81619;SDS011;71028;53.410;6.710;2024-02-16T00:49:56;7.75;;;3.30;;
81619;SDS011;71028;53.410;6.710;2024-02-16T00:52:22;5.97;;;3.28;;
81619;SDS011;71028;53.410;6.710;2024-02-16T00:54:48;5.57;;;3.33;;
81619;SDS011;71028;53.410;6.710;2024-02-16T00:57:15;6.75;;;3.60;;
81619;SDS011;71028;53.410;6.710;2024-02-16T00:59:41;5.18;;;3.40;;
81619;SDS011;71028;53.410;6.710;2024-02-16T01:02:07;5.25;;;3.10;;
81619;SDS011;71028;53.410;6.710;2024-02-16T01:04:35;7.25;;;3.47;;
81619;SDS011;71028;53.410;6.710;2024-02-16T01:07:01;4.32;;;2.67;;
81619;SDS011;71028;53.410;6.710;2024-02-16T01:09:28;5.60;;;3.58;;
81619;SDS011;71028;53.410;6.710;2024-02-16T01:11:54;5.40;;;3.45;;
81619;SDS011;71028;53.410;6.710;2024-02-16T01:14:20;7.53;;;3.30;;
81619;SDS011;71028;53.410;6.710;2024-02-16T01:16:46;5.65;;;3.30;;
81619;SDS011;71028;53.410;6.710;2024-02-16T01:19:12;4.97;;;3.10;;
81619;SDS011;71028;53.410;6.710;2024-02-16T01:21:38;6.28;;;3.13;;
81619;SDS011;71028;53.410;6.710;2024-02-16T01:24:05;6.32;;;3.08;;
81619;SDS011;71028;53.410;6.710;2024-02-16T01:26:31;7.68;;;3.33;;
81619;SDS011;71028;53.410;6.710;2024-02-16T01:28:58;5.60;;;3.97;;
81619;SDS011;71028;53.410;6.710;2024-02-16T01:31:24;6.15;;;3.00;;
81619;SDS011;71028;53.410;6.710;2024-02-16T01:33:51;6.60;;;3.47;;
81619;SDS011;71028;53.410;6.710;2024-02-16T01:36:17;5.53;;;3.17;;
81619;SDS011;71028;53.410;6.710;2024-02-16T01:38:43;4.20;;;2.92;;
81619;SDS011;71028;53.410;6.710;2024-02-16T01:41:09;5.25;;;3.08;;
81619;SDS011;71028;53.410;6.710;2024-02-16T01:43:36;5.10;;;3.58;;
81619;SDS011;71028;53.410;6.710;2024-02-16T01:46:02;6.57;;;2.92;;
81619;SDS011;71028;53.410;6.710;2024-02-16T01:48:28;7.50;;;3.28;;
81619;SDS011;71028;53.410;6.710;2024-02-16T01:50:54;6.90;;;3.40;;
81619;SDS011;71028;53.410;6.710;2024-02-16T01:53:20;5.93;;;3.55;;
81619;SDS011;71028;53.410;6.710;2024-02-16T01:55:47;3.90;;;3.10;;
81619;SDS011;71028;53.410;6.710;2024-02-16T01:58:13;5.30;;;2.85;;
81619;SDS011;71028;53.410;6.710;2024-02-16T02:00:40;6.90;;;2.92;;
81619;SDS011;71028;53.410;6.710;2024-02-16T02:03:06;5.43;;;3.28;;
81619;SDS011;71028;53.410;6.710;2024-02-16T02:05:32;5.28;;;3.03;;
81619;SDS011;71028;53.410;6.710;2024-02-16T02:07:58;5.45;;;3.15;;
81619;SDS011;71028;53.410;6.710;2024-02-16T02:10:24;5.50;;;3.33;;
81619;SDS011;71028;53.410;6.710;2024-02-16T02:12:50;7.15;;;3.55;;
81619;SDS011;71028;53.410;6.710;2024-02-16T02:15:16;5.53;;;2.78;;
81619;SDS011;71028;53.410;6.710;2024-02-16T02:17:42;5.47;;;3.13;;
81619;SDS011;71028;53.410;6.710;2024-02-16T02:20:09;5.05;;;3.03;;
81619;SDS011;71028;53.410;6.710;2024-02-16T02:22:38;5.63;;;2.60;;
81619;SDS011;71028;53.410;6.710;2024-02-16T02:25:04;5.38;;;3.03;;
81619;SDS011;71028;53.410;6.710;2024-02-16T02:27:31;5.45;;;2.33;;
81619;SDS011;71028;53.410;6.710;2024-02-16T02:29:58;9.65;;;2.92;;
81619;SDS011;71028;53.410;6.710;2024-02-16T02:32:24;6.07;;;3.17;;
81619;SDS011;71028;53.410;6.710;2024-02-16T02:34:51;4.82;;;2.75;;
81619;SDS011;71028;53.410;6.710;2024-02-16T02:37:18;5.43;;;2.38;;
81619;SDS011;71028;53.410;6.710;2024-02-16T02:39:44;8.00;;;2.63;;
81619;SDS011;71028;53.410;6.710;2024-02-16T02:42:10;5.75;;;2.30;;
81619;SDS011;71028;53.410;6.710;2024-02-16T02:44:36;4.65;;;2.70;;
81619;SDS011;71028;53.410;6.710;2024-02-16T02:47:02;5.82;;;2.72;;
81619;SDS011;71028;53.410;6.710;2024-02-16T02:49:28;7.88;;;2.60;;
81619;SDS011;71028;53.410;6.710;2024-02-16T02:51:54;5.45;;;2.97;;
81619;SDS011;71028;53.410;6.710;2024-02-16T02:54:20;4.30;;;2.65;;
81619;SDS011;71028;53.410;6.710;2024-02-16T02:56:46;3.42;;;2.35;;
81619;SDS011;71028;53.410;6.710;2024-02-16T02:59:12;5.05;;;2.85;;
81619;SDS011;71028;53.410;6.710;2024-02-16T03:01:38;4.10;;;2.45;;
81619;SDS011;71028;53.410;6.710;2024-02-16T03:04:04;5.82;;;2.33;;
81619;SDS011;71028;53.410;6.710;2024-02-16T03:06:31;5.38;;;2.63;;
81619;SDS011;71028;53.410;6.710;2024-02-16T03:08:57;5.13;;;2.42;;
81619;SDS011;71028;53.410;6.710;2024-02-16T03:11:23;5.10;;;2.63;;
81619;SDS011;71028;53.410;6.710;2024-02-16T03:13:49;6.97;;;2.67;;
81619;SDS011;71028;53.410;6.710;2024-02-16T03:16:15;5.50;;;2.70;;
81619;SDS011;71028;53.410;6.710;2024-02-16T03:18:41;4.55;;;3.30;;
81619;SDS011;71028;53.410;6.710;2024-02-16T03:21:07;5.80;;;2.92;;
81619;SDS011;71028;53.410;6.710;2024-02-16T03:23:33;7.18;;;2.65;;
81619;SDS011;71028;53.410;6.710;2024-02-16T03:25:59;7.05;;;2.88;;
81619;SDS011;71028;53.410;6.710;2024-02-16T03:28:25;5.65;;;2.97;;
81619;SDS011;71028;53.410;6.710;2024-02-16T03:30:51;5.05;;;3.03;;
81619;SDS011;71028;53.410;6.710;2024-02-16T03:33:17;4.15;;;3.28;;
81619;SDS011;71028;53.410;6.710;2024-02-16T03:35:43;5.78;;;2.40;;
81619;SDS011;71028;53.410;6.710;2024-02-16T03:38:09;6.72;;;3.15;;
81619;SDS011;71028;53.410;6.710;2024-02-16T03:40:35;3.80;;;2.53;;
81619;SDS011;71028;53.410;6.710;2024-02-16T03:43:02;9.98;;;3.20;;
81619;SDS011;71028;53.410;6.710;2024-02-16T03:45:28;4.30;;;2.45;;
81619;SDS011;71028;53.410;6.710;2024-02-16T03:47:54;7.15;;;3.08;;
81619;SDS011;71028;53.410;6.710;2024-02-16T03:50:20;4.85;;;2.90;;
81619;SDS011;71028;53.410;6.710;2024-02-16T03:52:47;8.40;;;3.20;;
81619;SDS011;71028;53.410;6.710;2024-02-16T03:55:13;5.28;;;2.90;;
81619;SDS011;71028;53.410;6.710;2024-02-16T03:57:39;6.18;;;3.00;;
81619;SDS011;71028;53.410;6.710;2024-02-16T04:00:07;5.35;;;2.97;;
81619;SDS011;71028;53.410;6.710;2024-02-16T04:02:33;4.72;;;2.72;;
81619;SDS011;71028;53.410;6.710;2024-02-16T04:05:01;5.35;;;2.70;;
81619;SDS011;71028;53.410;6.710;2024-02-16T04:07:28;4.53;;;2.50;;
81619;SDS011;71028;53.410;6.710;2024-02-16T04:09:54;6.45;;;3.13;;
81619;SDS011;71028;53.410;6.710;2024-02-16T04:12:20;7.80;;;2.85;;
81619;SDS011;71028;53.410;6.710;2024-02-16T04:14:46;7.45;;;4.07;;
81619;SDS011;71028;53.410;6.710;2024-02-16T04:17:12;4.65;;;2.88;;
81619;SDS011;71028;53.410;6.710;2024-02-16T04:19:38;5.25;;;2.80;;
81619;SDS011;71028;53.410;6.710;2024-02-16T04:22:04;4.20;;;2.60;;
81619;SDS011;71028;53.410;6.710;2024-02-16T04:24:30;5.38;;;2.97;;
81619;SDS011;71028;53.410;6.710;2024-02-16T04:26:56;6.72;;;2.95;;
81619;SDS011;71028;53.410;6.710;2024-02-16T04:29:22;6.80;;;2.83;;
81619;SDS011;71028;53.410;6.710;2024-02-16T04:31:48;4.55;;;2.55;;
81619;SDS011;71028;53.410;6.710;2024-02-16T04:34:14;4.38;;;3.10;;
81619;SDS011;71028;53.410;6.710;2024-02-16T04:36:41;5.75;;;3.50;;
81619;SDS011;71028;53.410;6.710;2024-02-16T04:39:08;4.88;;;2.95;;
81619;SDS011;71028;53.410;6.710;2024-02-16T04:41:35;4.13;;;2.83;;
81619;SDS011;71028;53.410;6.710;2024-02-16T04:44:02;5.80;;;3.35;;
81619;SDS011;71028;53.410;6.710;2024-02-16T04:46:28;4.72;;;3.28;;
81619;SDS011;71028;53.410;6.710;2024-02-16T04:48:54;5.78;;;3.08;;
81619;SDS011;71028;53.410;6.710;2024-02-16T04:51:20;8.05;;;3.15;;
81619;SDS011;71028;53.410;6.710;2024-02-16T04:53:46;4.10;;;2.83;;
81619;SDS011;71028;53.410;6.710;2024-02-16T04:56:13;5.85;;;2.83;;
81619;SDS011;71028;53.410;6.710;2024-02-16T04:58:42;6.40;;;3.05;;
81619;SDS011;71028;53.410;6.710;2024-02-16T05:01:08;5.28;;;3.08;;
81619;SDS011;71028;53.410;6.710;2024-02-16T05:03:35;4.55;;;3.10;;
81619;SDS011;71028;53.410;6.710;2024-02-16T05:06:02;5.97;;;3.38;;
81619;SDS011;71028;53.410;6.710;2024-02-16T05:08:28;4.70;;;2.92;;
81619;SDS011;71028;53.410;6.710;2024-02-16T05:10:54;3.50;;;2.42;;
81619;SDS011;71028;53.410;6.710;2024-02-16T05:13:20;6.22;;;3.30;;
81619;SDS011;71028;53.410;6.710;2024-02-16T05:15:46;5.85;;;3.15;;
81619;SDS011;71028;53.410;6.710;2024-02-16T05:18:13;7.03;;;3.03;;
81619;SDS011;71028;53.410;6.710;2024-02-16T05:20:40;5.10;;;2.88;;
81619;SDS011;71028;53.410;6.710;2024-02-16T05:23:06;7.20;;;3.33;;
81619;SDS011;71028;53.410;6.710;2024-02-16T05:25:32;4.85;;;3.03;;
81619;SDS011;71028;53.410;6.710;2024-02-16T05:27:58;5.90;;;3.10;;
81619;SDS011;71028;53.410;6.710;2024-02-16T05:30:24;6.32;;;3.30;;
81619;SDS011;71028;53.410;6.710;2024-02-16T05:32:50;6.53;;;3.35;;
81619;SDS011;71028;53.410;6.710;2024-02-16T05:35:18;5.97;;;3.22;;
81619;SDS011;71028;53.410;6.710;2024-02-16T05:37:44;5.82;;;2.90;;
81619;SDS011;71028;53.410;6.710;2024-02-16T05:40:13;8.25;;;2.72;;
81619;SDS011;71028;53.410;6.710;2024-02-16T05:42:54;4.70;;;2.72;;
81619;SDS011;71028;53.410;6.710;2024-02-16T05:45:23;4.95;;;3.00;;
81619;SDS011;71028;53.410;6.710;2024-02-16T05:47:51;4.90;;;2.67;;
81619;SDS011;71028;53.410;6.710;2024-02-16T05:50:19;5.03;;;2.75;;
81619;SDS011;71028;53.410;6.710;2024-02-16T05:52:45;5.00;;;2.90;;
81619;SDS011;71028;53.410;6.710;2024-02-16T05:55:11;4.40;;;2.75;;
81619;SDS011;71028;53.410;6.710;2024-02-16T05:57:40;4.55;;;3.25;;
81619;SDS011;71028;53.410;6.710;2024-02-16T06:00:07;3.58;;;2.65;;
81619;SDS011;71028;53.410;6.710;2024-02-16T06:02:34;4.65;;;2.78;;
81619;SDS011;71028;53.410;6.710;2024-02-16T06:05:01;6.65;;;3.22;;
81619;SDS011;71028;53.410;6.710;2024-02-16T06:07:27;8.05;;;3.40;;
81619;SDS011;71028;53.410;6.710;2024-02-16T06:09:56;5.78;;;2.67;;
81619;SDS011;71028;53.410;6.710;2024-02-16T06:12:23;5.55;;;2.83;;
81619;SDS011;71028;53.410;6.710;2024-02-16T06:14:49;6.32;;;3.03;;
81619;SDS011;71028;53.410;6.710;2024-02-16T06:17:16;4.28;;;2.90;;
81619;SDS011;71028;53.410;6.710;2024-02-16T06:19:42;7.18;;;3.40;;
81619;SDS011;71028;53.410;6.710;2024-02-16T06:22:08;4.90;;;2.65;;
81619;SDS011;71028;53.410;6.710;2024-02-16T06:24:35;7.03;;;3.38;;
81619;SDS011;71028;53.410;6.710;2024-02-16T06:27:01;7.50;;;3.05;;
81619;SDS011;71028;53.410;6.710;2024-02-16T06:29:28;4.78;;;3.08;;
81619;SDS011;71028;53.410;6.710;2024-02-16T06:31:55;5.45;;;2.90;;
81619;SDS011;71028;53.410;6.710;2024-02-16T06:34:21;6.95;;;3.13;;
81619;SDS011;71028;53.410;6.710;2024-02-16T06:36:47;6.18;;;3.00;;
81619;SDS011;71028;53.410;6.710;2024-02-16T06:39:15;5.93;;;3.28;;
81619;SDS011;71028;53.410;6.710;2024-02-16T06:41:45;6.47;;;3.13;;
81619;SDS011;71028;53.410;6.710;2024-02-16T06:44:14;5.00;;;2.70;;
81619;SDS011;71028;53.410;6.710;2024-02-16T06:46:40;6.90;;;3.38;;
81619;SDS011;71028;53.410;6.710;2024-02-16T06:49:07;4.30;;;2.70;;
81619;SDS011;71028;53.410;6.710;2024-02-16T06:51:33;8.55;;;3.08;;
81619;SDS011;71028;53.410;6.710;2024-02-16T06:53:59;4.03;;;2.97;;
81619;SDS011;71028;53.410;6.710;2024-02-16T06:56:25;3.80;;;2.47;;
81619;SDS011;71028;53.410;6.710;2024-02-16T06:58:52;7.07;;;3.17;;
81619;SDS011;71028;53.410;6.710;2024-02-16T07:01:19;4.50;;;2.90;;
81619;SDS011;71028;53.410;6.710;2024-02-16T07:03:45;4.72;;;2.70;;
81619;SDS011;71028;53.410;6.710;2024-02-16T07:06:11;6.55;;;3.45;;
81619;SDS011;71028;53.410;6.710;2024-02-16T07:08:42;4.88;;;2.92;;
81619;SDS011;71028;53.410;6.710;2024-02-16T07:11:08;4.13;;;3.47;;
81619;SDS011;71028;53.410;6.710;2024-02-16T07:13:37;4.70;;;3.03;;
81619;SDS011;71028;53.410;6.710;2024-02-16T07:16:03;5.68;;;2.97;;
81619;SDS011;71028;53.410;6.710;2024-02-16T07:18:31;4.60;;;2.80;;
81619;SDS011;71028;53.410;6.710;2024-02-16T07:20:58;5.50;;;2.65;;
81619;SDS011;71028;53.410;6.710;2024-02-16T07:23:24;5.25;;;3.00;;
81619;SDS011;71028;53.410;6.710;2024-02-16T07:25:51;4.82;;;2.97;;
81619;SDS011;71028;53.410;6.710;2024-02-16T07:28:20;4.10;;;2.53;;
81619;SDS011;71028;53.410;6.710;2024-02-16T07:30:47;5.32;;;2.92;;
81619;SDS011;71028;53.410;6.710;2024-02-16T07:33:13;4.47;;;3.00;;
81619;SDS011;71028;53.410;6.710;2024-02-16T07:35:39;4.15;;;2.70;;
81619;SDS011;71028;53.410;6.710;2024-02-16T07:38:05;4.38;;;2.70;;
81619;SDS011;71028;53.410;6.710;2024-02-16T07:40:32;5.07;;;2.75;;
81619;SDS011;71028;53.410;6.710;2024-02-16T07:42:58;5.90;;;3.40;;
81619;SDS011;71028;53.410;6.710;2024-02-16T07:45:24;4.00;;;2.83;;
81619;SDS011;71028;53.410;6.710;2024-02-16T07:47:51;4.95;;;3.08;;
81619;SDS011;71028;53.410;6.710;2024-02-16T07:50:23;5.03;;;2.88;;
81619;SDS011;71028;53.410;6.710;2024-02-16T07:52:49;5.07;;;3.17;;
81619;SDS011;71028;53.410;6.710;2024-02-16T07:55:16;5.60;;;3.22;;
81619;SDS011;71028;53.410;6.710;2024-02-16T07:57:49;6.18;;;3.22;;
81619;SDS011;71028;53.410;6.710;2024-02-16T08:00:16;3.30;;;2.70;;
81619;SDS011;71028;53.410;6.710;2024-02-16T08:02:42;6.78;;;2.75;;
81619;SDS011;71028;53.410;6.710;2024-02-16T08:05:08;4.68;;;2.70;;
81619;SDS011;71028;53.410;6.710;2024-02-16T08:07:34;6.18;;;3.92;;
81619;SDS011;71028;53.410;6.710;2024-02-16T08:10:00;5.63;;;2.92;;
81619;SDS011;71028;53.410;6.710;2024-02-16T08:12:27;6.22;;;2.80;;
81619;SDS011;71028;53.410;6.710;2024-02-16T08:14:53;5.15;;;2.88;;
81619;SDS011;71028;53.410;6.710;2024-02-16T08:17:19;7.13;;;3.08;;
81619;SDS011;71028;53.410;6.710;2024-02-16T08:19:51;5.93;;;3.38;;
81619;SDS011;71028;53.410;6.710;2024-02-16T08:22:17;6.40;;;3.13;;
81619;SDS011;71028;53.410;6.710;2024-02-16T08:24:43;4.90;;;2.90;;
81619;SDS011;71028;53.410;6.710;2024-02-16T08:27:11;3.58;;;2.83;;
81619;SDS011;71028;53.410;6.710;2024-02-16T08:29:40;4.72;;;2.92;;
81619;SDS011;71028;53.410;6.710;2024-02-16T08:32:07;4.90;;;3.00;;
81619;SDS011;71028;53.410;6.710;2024-02-16T08:34:34;4.43;;;3.22;;
81619;SDS011;71028;53.410;6.710;2024-02-16T08:37:02;6.65;;;3.10;;
81619;SDS011;71028;53.410;6.710;2024-02-16T08:39:29;7.40;;;3.33;;
81619;SDS011;71028;53.410;6.710;2024-02-16T08:41:55;4.72;;;2.97;;
81619;SDS011;71028;53.410;6.710;2024-02-16T08:44:21;4.63;;;3.20;;
81619;SDS011;71028;53.410;6.710;2024-02-16T08:46:47;5.35;;;3.10;;
81619;SDS011;71028;53.410;6.710;2024-02-16T08:49:14;4.53;;;2.83;;
81619;SDS011;71028;53.410;6.710;2024-02-16T08:51:41;6.90;;;3.47;;
81619;SDS011;71028;53.410;6.710;2024-02-16T08:54:07;5.75;;;3.47;;
81619;SDS011;71028;53.410;6.710;2024-02-16T08:56:33;5.32;;;3.03;;
81619;SDS011;71028;53.410;6.710;2024-02-16T08:59:03;4.93;;;3.03;;
81619;SDS011;71028;53.410;6.710;2024-02-16T09:01:33;4.50;;;3.20;;
81619;SDS011;71028;53.410;6.710;2024-02-16T09:03:59;4.32;;;3.17;;
81619;SDS011;71028;53.410;6.710;2024-02-16T09:06:25;7.72;;;3.40;;
81619;SDS011;71028;53.410;6.710;2024-02-16T09:08:51;5.35;;;3.97;;
81619;SDS011;71028;53.410;6.710;2024-02-16T09:11:17;6.55;;;3.78;;
81619;SDS011;71028;53.410;6.710;2024-02-16T09:13:44;5.90;;;3.25;;
81619;SDS011;71028;53.410;6.710;2024-02-16T09:16:10;5.80;;;3.28;;
81619;SDS011;71028;53.410;6.710;2024-02-16T09:18:36;4.95;;;3.30;;
81619;SDS011;71028;53.410;6.710;2024-02-16T09:21:03;5.95;;;3.35;;
81619;SDS011;71028;53.410;6.710;2024-02-16T09:23:29;7.60;;;4.20;;
81619;SDS011;71028;53.410;6.710;2024-02-16T09:25:55;4.85;;;3.38;;
81619;SDS011;71028;53.410;6.710;2024-02-16T09:28:21;5.22;;;3.70;;
81619;SDS011;71028;53.410;6.710;2024-02-16T09:30:47;6.32;;;3.50;;
81619;SDS011;71028;53.410;6.710;2024-02-16T09:33:13;6.00;;;3.72;;
81619;SDS011;71028;53.410;6.710;2024-02-16T09:35:40;6.72;;;3.63;;
81619;SDS011;71028;53.410;6.710;2024-02-16T09:38:06;6.75;;;3.70;;
81619;SDS011;71028;53.410;6.710;2024-02-16T09:40:33;8.55;;;4.00;;
81619;SDS011;71028;53.410;6.710;2024-02-16T09:42:59;5.25;;;3.60;;
81619;SDS011;71028;53.410;6.710;2024-02-16T09:45:25;7.43;;;3.58;;
81619;SDS011;71028;53.410;6.710;2024-02-16T09:47:53;5.72;;;3.95;;
81619;SDS011;71028;53.410;6.710;2024-02-16T09:50:20;7.55;;;3.92;;
81619;SDS011;71028;53.410;6.710;2024-02-16T09:52:49;6.95;;;3.88;;
81619;SDS011;71028;53.410;6.710;2024-02-16T09:55:16;8.10;;;3.70;;
81619;SDS011;71028;53.410;6.710;2024-02-16T09:57:43;5.85;;;3.88;;
81619;SDS011;71028;53.410;6.710;2024-02-16T10:00:09;5.82;;;3.70;;
81619;SDS011;71028;53.410;6.710;2024-02-16T10:02:43;5.47;;;4.20;;
81619;SDS011;71028;53.410;6.710;2024-02-16T10:05:16;6.35;;;3.67;;
81619;SDS011;71028;53.410;6.710;2024-02-16T10:07:42;5.00;;;3.60;;
81619;SDS011;71028;53.410;6.710;2024-02-16T10:10:27;6.40;;;4.60;;
81619;SDS011;71028;53.410;6.710;2024-02-16T10:15:29;6.32;;;3.95;;
81619;SDS011;71028;53.410;6.710;2024-02-16T10:17:59;5.07;;;3.80;;
81619;SDS011;71028;53.410;6.710;2024-02-16T10:20:25;5.72;;;3.85;;
81619;SDS011;71028;53.410;6.710;2024-02-16T10:25:30;6.57;;;4.05;;
81619;SDS011;71028;53.410;6.710;2024-02-16T10:27:56;8.07;;;5.03;;
81619;SDS011;71028;53.410;6.710;2024-02-16T10:30:24;5.65;;;4.18;;
81619;SDS011;71028;53.410;6.710;2024-02-16T10:32:51;8.77;;;4.93;;
81619;SDS011;71028;53.410;6.710;2024-02-16T10:35:17;10.38;;;5.32;;
81619;SDS011;71028;53.410;6.710;2024-02-16T10:37:43;5.72;;;4.03;;
81619;SDS011;71028;53.410;6.710;2024-02-16T10:40:11;7.03;;;4.80;;
81619;SDS011;71028;53.410;6.710;2024-02-16T10:42:38;7.93;;;4.43;;
81619;SDS011;71028;53.410;6.710;2024-02-16T10:45:06;6.32;;;4.40;;
81619;SDS011;71028;53.410;6.710;2024-02-16T10:47:32;7.22;;;4.43;;
81619;SDS011;71028;53.410;6.710;2024-02-16T10:49:58;8.13;;;4.72;;
81619;SDS011;71028;53.410;6.710;2024-02-16T10:52:24;7.93;;;5.25;;
81619;SDS011;71028;53.410;6.710;2024-02-16T10:54:50;8.85;;;5.18;;
81619;SDS011;71028;53.410;6.710;2024-02-16T10:57:16;11.23;;;5.60;;
81619;SDS011;71028;53.410;6.710;2024-02-16T10:59:43;8.57;;;5.05;;
81619;SDS011;71028;53.410;6.710;2024-02-16T11:02:10;10.10;;;5.05;;
81619;SDS011;71028;53.410;6.710;2024-02-16T11:04:37;9.43;;;5.35;;
81619;SDS011;71028;53.410;6.710;2024-02-16T11:07:25;9.95;;;5.20;;
81619;SDS011;71028;53.410;6.710;2024-02-16T11:09:51;7.88;;;5.03;;
81619;SDS011;71028;53.410;6.710;2024-02-16T11:12:17;9.48;;;5.35;;
81619;SDS011;71028;53.410;6.710;2024-02-16T11:14:46;9.98;;;5.82;;
81619;SDS011;71028;53.410;6.710;2024-02-16T11:17:21;11.05;;;5.95;;
81619;SDS011;71028;53.410;6.710;2024-02-16T11:19:48;10.27;;;6.28;;
81619;SDS011;71028;53.410;6.710;2024-02-16T11:22:15;11.10;;;5.45;;
81619;SDS011;71028;53.410;6.710;2024-02-16T11:24:42;8.93;;;5.15;;
81619;SDS011;71028;53.410;6.710;2024-02-16T11:27:12;10.30;;;5.35;;
81619;SDS011;71028;53.410;6.710;2024-02-16T11:29:40;12.80;;;5.53;;
81619;SDS011;71028;53.410;6.710;2024-02-16T11:32:07;10.95;;;6.32;;
81619;SDS011;71028;53.410;6.710;2024-02-16T11:34:33;14.15;;;7.28;;
81619;SDS011;71028;53.410;6.710;2024-02-16T11:37:00;10.18;;;6.78;;
81619;SDS011;71028;53.410;6.710;2024-02-16T11:39:27;11.40;;;7.35;;
81619;SDS011;71028;53.410;6.710;2024-02-16T11:44:25;12.10;;;7.00;;
81619;SDS011;71028;53.410;6.710;2024-02-16T11:46:55;16.15;;;8.40;;
81619;SDS011;71028;53.410;6.710;2024-02-16T11:49:21;15.55;;;8.50;;
81619;SDS011;71028;53.410;6.710;2024-02-16T11:51:47;16.73;;;7.75;;
81619;SDS011;71028;53.410;6.710;2024-02-16T11:54:13;14.60;;;7.30;;
81619;SDS011;71028;53.410;6.710;2024-02-16T11:56:42;14.02;;;6.57;;
81619;SDS011;71028;53.410;6.710;2024-02-16T11:59:11;13.77;;;7.55;;
81619;SDS011;71028;53.410;6.710;2024-02-16T12:01:47;12.55;;;6.75;;
81619;SDS011;71028;53.410;6.710;2024-02-16T12:04:26;13.48;;;6.30;;
81619;SDS011;71028;53.410;6.710;2024-02-16T12:06:55;10.90;;;6.32;;
81619;SDS011;71028;53.410;6.710;2024-02-16T12:09:21;13.25;;;7.07;;
81619;SDS011;71028;53.410;6.710;2024-02-16T12:11:48;9.80;;;6.22;;
81619;SDS011;71028;53.410;6.710;2024-02-16T12:14:15;10.85;;;6.20;;
81619;SDS011;71028;53.410;6.710;2024-02-16T12:16:41;11.23;;;4.95;;
81619;SDS011;71028;53.410;6.710;2024-02-16T12:19:07;14.00;;;5.30;;
81619;SDS011;71028;53.410;6.710;2024-02-16T12:21:36;14.73;;;6.65;;
81619;SDS011;71028;53.410;6.710;2024-02-16T12:24:04;10.43;;;5.07;;
81619;SDS011;71028;53.410;6.710;2024-02-16T12:26:30;11.93;;;5.82;;
81619;SDS011;71028;53.410;6.710;2024-02-16T12:28:56;10.00;;;5.22;;
81619;SDS011;71028;53.410;6.710;2024-02-16T12:31:22;9.25;;;5.43;;
81619;SDS011;71028;53.410;6.710;2024-02-16T12:33:48;10.20;;;4.88;;
81619;SDS011;71028;53.410;6.710;2024-02-16T12:36:14;9.57;;;4.82;;
81619;SDS011;71028;53.410;6.710;2024-02-16T12:38:42;9.45;;;4.88;;
81619;SDS011;71028;53.410;6.710;2024-02-16T12:41:08;8.63;;;4.22;;
81619;SDS011;71028;53.410;6.710;2024-02-16T12:43:34;11.20;;;4.72;;
81619;SDS011;71028;53.410;6.710;2024-02-16T12:46:00;8.25;;;4.38;;
81619;SDS011;71028;53.410;6.710;2024-02-16T12:48:27;8.13;;;4.55;;
81619;SDS011;71028;53.410;6.710;2024-02-16T12:50:53;9.52;;;4.28;;
81619;SDS011;71028;53.410;6.710;2024-02-16T12:53:19;8.10;;;4.38;;
81619;SDS011;71028;53.410;6.710;2024-02-16T12:55:49;9.40;;;4.50;;
81619;SDS011;71028;53.410;6.710;2024-02-16T12:58:15;8.70;;;4.53;;
81619;SDS011;71028;53.410;6.710;2024-02-16T13:00:41;5.38;;;3.28;;
81619;SDS011;71028;53.410;6.710;2024-02-16T13:03:08;5.55;;;3.63;;
81619;SDS011;71028;53.410;6.710;2024-02-16T13:05:34;4.72;;;2.80;;
81619;SDS011;71028;53.410;6.710;2024-02-16T13:08:00;4.43;;;3.13;;
81619;SDS011;71028;53.410;6.710;2024-02-16T13:10:26;7.40;;;3.00;;
81619;SDS011;71028;53.410;6.710;2024-02-16T13:12:52;3.65;;;2.28;;
81619;SDS011;71028;53.410;6.710;2024-02-16T13:15:18;3.72;;;2.20;;
81619;SDS011;71028;53.410;6.710;2024-02-16T13:17:44;4.78;;;2.13;;
81619;SDS011;71028;53.410;6.710;2024-02-16T13:20:10;4.55;;;2.13;;
81619;SDS011;71028;53.410;6.710;2024-02-16T13:22:36;3.67;;;1.70;;
81619;SDS011;71028;53.410;6.710;2024-02-16T13:25:03;3.75;;;1.52;;
81619;SDS011;71028;53.410;6.710;2024-02-16T13:27:29;2.85;;;1.20;;
81619;SDS011;71028;53.410;6.710;2024-02-16T13:29:55;2.22;;;1.52;;
81619;SDS011;71028;53.410;6.710;2024-02-16T13:32:21;3.30;;;1.35;;
81619;SDS011;71028;53.410;6.710;2024-02-16T13:34:47;1.92;;;1.25;;
81619;SDS011;71028;53.410;6.710;2024-02-16T13:37:13;2.25;;;1.40;;
81619;SDS011;71028;53.410;6.710;2024-02-16T13:39:40;2.92;;;1.30;;
81619;SDS011;71028;53.410;6.710;2024-02-16T13:42:06;2.05;;;1.30;;
81619;SDS011;71028;53.410;6.710;2024-02-16T13:44:32;3.70;;;1.42;;
81619;SDS011;71028;53.410;6.710;2024-02-16T13:46:58;1.63;;;1.08;;
81619;SDS011;71028;53.410;6.710;2024-02-16T13:49:24;2.80;;;1.27;;
81619;SDS011;71028;53.410;6.710;2024-02-16T13:51:50;3.58;;;1.60;;
81619;SDS011;71028;53.410;6.710;2024-02-16T13:54:16;1.45;;;1.10;;
81619;SDS011;71028;53.410;6.710;2024-02-16T13:56:42;4.10;;;1.23;;
81619;SDS011;71028;53.410;6.710;2024-02-16T13:59:09;5.55;;;1.75;;
81619;SDS011;71028;53.410;6.710;2024-02-16T14:01:35;2.75;;;1.50;;
81619;SDS011;71028;53.410;6.710;2024-02-16T14:04:02;4.68;;;1.73;;
81619;SDS011;71028;53.410;6.710;2024-02-16T14:06:29;3.45;;;1.83;;
81619;SDS011;71028;53.410;6.710;2024-02-16T14:08:58;3.83;;;1.85;;
81619;SDS011;71028;53.410;6.710;2024-02-16T14:11:24;5.63;;;2.20;;
81619;SDS011;71028;53.410;6.710;2024-02-16T14:13:50;4.60;;;1.90;;
81619;SDS011;71028;53.410;6.710;2024-02-16T14:16:16;3.65;;;2.25;;
81619;SDS011;71028;53.410;6.710;2024-02-16T14:18:42;6.18;;;2.80;;
81619;SDS011;71028;53.410;6.710;2024-02-16T14:21:08;3.35;;;2.08;;
81619;SDS011;71028;53.410;6.710;2024-02-16T14:23:35;6.43;;;2.80;;
81619;SDS011;71028;53.410;6.710;2024-02-16T14:26:01;3.47;;;1.95;;
81619;SDS011;71028;53.410;6.710;2024-02-16T14:28:27;6.65;;;2.58;;
81619;SDS011;71028;53.410;6.710;2024-02-16T14:30:53;5.88;;;2.50;;
81619;SDS011;71028;53.410;6.710;2024-02-16T14:33:19;4.90;;;2.28;;
81619;SDS011;71028;53.410;6.710;2024-02-16T14:35:45;3.72;;;1.92;;
81619;SDS011;71028;53.410;6.710;2024-02-16T14:38:13;3.90;;;2.30;;
81619;SDS011;71028;53.410;6.710;2024-02-16T14:40:40;4.38;;;2.13;;
81619;SDS011;71028;53.410;6.710;2024-02-16T14:43:06;4.63;;;2.50;;
81619;SDS011;71028;53.410;6.710;2024-02-16T14:45:33;3.80;;;2.10;;
81619;SDS011;71028;53.410;6.710;2024-02-16T14:47:59;2.72;;;1.63;;
81619;SDS011;71028;53.410;6.710;2024-02-16T14:50:25;4.90;;;2.38;;